Aérodrome :
LOGIN :

S'inscrire | Disclaimer

   EN    FR    IT 

 










Légende :    VFR   VFR Marginal   IFR   IFR Intensif   IFR Très Intensif
Visi : 
Plafond : 
>= 8 km
>= 3000ft
5 à 8 km
1000 à 3000 ft
1500m à 5 km
500 à 1000 ft
800 à 1500m
200 à 500 ft
< 800m
< 200 ft
Symboles :   Orages  Brouillard  Fortes neiges  Fortes précipitations  Vent > 20 kt
SIGMETs :   Divers  Orages  Givrage  Turbulence  Onde Orograph.  Cendres Volcan.







- Altitude de l'aérodrome : 458 ft
- Voir les cartes d'approche


LFSI - St-Dizier

DERNIER METAR :
  • 220000Z AUTO 24012KT 4700 RA BR OVC005 10/10 Q1010

METARs EXPIRÉS :
  • 212330Z AUTO 22009KT 5000 RA BR OVC005 09/09 Q1010
  • 212300Z AUTO 22008KT 4800 RA BR OVC005 08/08 Q1011
  • 212230Z AUTO 19006KT 5000 RA BR OVC006 07/07 Q1011
  • 212200Z AUTO 17006KT 9000 -RA OVC006 06/06 Q1011
  • 212130Z AUTO 16004KT 100V200 6000 RA BKN006 OVC011 05/05 Q1012

TAF TAF LFSI
Valide du 21 à 21h jusqu'au 22 à 21h UTC


212000Z 2121/2221 18008KT 7000 RADZ BKN006
BECMG 2122/2123 19012G22KT
BECMG 2201/2202 26015G25KT
TEMPO 2204/2207 4000 DZ BKN004
TEMPO 2208/2210 RA BKN012
BECMG 2210/2211 SHRA BKN018
BECMG 2215/2216 NSW
Pas de NOTAMs connus pour ce terrain.



MET'MAP, la Météo Aéronautique d'un coup d'oeil ! - Copyright ORBIFLY Décembre 2007 - Disclaimer

ORBIFLY MET'MAP TEAM :

Programmation & Développement : Alexandra Zaïnal
Conception & Développement : Baudouin d'Aumeries
Co-Programmation & Développement : Marc-Olivier Méhu
Soutien technique & logistique : Manuel Goepfert

Contact : metmap@orbifly.com




SOURCES & CREDITS :

   NOAA